Terminal Aerodrome Forecast
Issued by NWS Charleston, WV

Current Version | Previous Version | Graphics & Text | Print | Product List | Glossary On
Versions: 1 2 3 4 5 6 7 8 9 10 11 12 13 14 15 16 17 18 19 20 21 22 23 24
000
FTUS41 KRLX 181100
TAFHTS
TAF
KHTS 181127Z 1812/1912 26009G18KT P6SM OVC050
     FM181700 28012G24KT P6SM BKN020
     FM190000 30008KT P6SM OVC019
     FM190200 31007KT P6SM BKN015=

USA.gov is the U.S. government's official web portal to all federal, state and local government web resources and services.